createdAt,value
2023-02-19T00:01:16.338Z,3.05
2023-02-19T00:03:32.915Z,4.00
2023-02-19T00:05:49.698Z,4.25
2023-02-19T00:08:06.188Z,3.05
2023-02-19T00:10:22.629Z,3.25
2023-02-19T00:12:39.136Z,3.00
2023-02-19T00:14:55.935Z,3.42
2023-02-19T00:17:12.412Z,3.65
2023-02-19T00:19:28.779Z,4.40
2023-02-19T00:21:45.144Z,2.90
2023-02-19T00:24:01.864Z,2.65
2023-02-19T00:26:18.990Z,2.85
2023-02-19T00:28:35.434Z,2.92
2023-02-19T00:30:52.218Z,3.80
2023-02-19T00:33:08.461Z,3.60
2023-02-19T00:35:24.747Z,4.25
2023-02-19T00:37:41.124Z,3.25
2023-02-19T00:39:57.815Z,3.55
2023-02-19T00:42:14.615Z,3.78
2023-02-19T00:44:31.029Z,3.75
2023-02-19T00:46:47.885Z,3.58
2023-02-19T00:49:04.411Z,3.83
2023-02-19T00:51:20.962Z,3.00
2023-02-19T00:53:37.315Z,3.35
2023-02-19T00:55:53.688Z,3.72
2023-02-19T00:58:10.068Z,3.47
2023-02-19T01:00:26.798Z,3.15
2023-02-19T01:02:43.290Z,3.38
2023-02-19T01:04:59.916Z,4.68
2023-02-19T01:07:16.274Z,3.60
2023-02-19T01:09:32.769Z,3.35
2023-02-19T01:11:49.470Z,4.20
2023-02-19T01:14:05.961Z,3.53
2023-02-19T01:16:22.484Z,4.88
2023-02-19T01:18:39.023Z,3.10
2023-02-19T01:20:55.371Z,4.68
2023-02-19T01:23:11.758Z,3.58
2023-02-19T01:25:28.072Z,4.50
2023-02-19T01:27:44.526Z,3.20
2023-02-19T01:30:01.056Z,3.00
2023-02-19T01:32:17.849Z,3.70
2023-02-19T01:34:34.358Z,4.78
2023-02-19T01:36:51.172Z,3.10
2023-02-19T01:39:07.546Z,3.08
2023-02-19T01:41:24.056Z,3.00
2023-02-19T01:43:40.540Z,3.20
2023-02-19T01:45:56.924Z,3.63
2023-02-19T01:48:13.465Z,3.67
2023-02-19T01:50:29.934Z,4.03
2023-02-19T01:52:46.626Z,3.17
2023-02-19T01:55:02.991Z,2.97
2023-02-19T01:57:19.522Z,3.40
2023-02-19T01:59:36.242Z,2.90
2023-02-19T02:01:53.039Z,2.50
2023-02-19T02:04:09.818Z,2.80
2023-02-19T02:06:26.248Z,3.78
2023-02-19T02:08:42.821Z,2.63
2023-02-19T02:10:59.286Z,2.28
2023-02-19T02:13:15.640Z,3.95
2023-02-19T02:15:31.975Z,2.40
2023-02-19T02:17:48.771Z,2.97
2023-02-19T02:20:05.131Z,2.95
2023-02-19T02:22:21.599Z,3.38
2023-02-19T02:24:38.105Z,2.53
2023-02-19T02:26:54.494Z,2.85
2023-02-19T02:29:10.869Z,4.45
2023-02-19T02:31:27.747Z,2.88
2023-02-19T02:33:44.494Z,2.50
2023-02-19T02:36:00.869Z,3.17
2023-02-19T02:38:17.339Z,2.35
2023-02-19T02:40:34.105Z,2.95
2023-02-19T02:42:50.467Z,2.40
2023-02-19T02:45:06.876Z,2.03
2023-02-19T02:47:23.254Z,2.28
2023-02-19T02:49:40.023Z,2.25
2023-02-19T02:51:56.457Z,2.10
2023-02-19T02:54:13.021Z,3.05
2023-02-19T02:56:29.423Z,2.10
2023-02-19T02:58:45.943Z,1.80
2023-02-19T03:01:02.733Z,2.67
2023-02-19T03:03:19.547Z,2.53
2023-02-19T03:05:35.940Z,2.20
2023-02-19T03:07:52.393Z,2.00
2023-02-19T03:10:08.755Z,2.60
2023-02-19T03:12:25.089Z,2.17
2023-02-19T03:14:41.395Z,1.95
2023-02-19T03:16:57.894Z,2.38
2023-02-19T03:19:14.764Z,2.42
2023-02-19T03:21:31.110Z,1.98
2023-02-19T03:23:47.643Z,2.10
2023-02-19T03:26:04.069Z,2.38
2023-02-19T03:28:20.656Z,1.92
2023-02-19T03:30:37.377Z,1.88
2023-02-19T03:32:53.829Z,2.05
2023-02-19T03:35:10.295Z,1.40
2023-02-19T03:37:26.742Z,2.33
2023-02-19T03:39:43.081Z,1.33
2023-02-19T03:41:59.365Z,1.80
2023-02-19T03:44:15.671Z,1.50
2023-02-19T03:46:32.298Z,1.40
2023-02-19T03:48:48.645Z,1.95
2023-02-19T03:51:05.247Z,1.20
2023-02-19T03:53:21.559Z,1.05
2023-02-19T03:55:38.073Z,2.35
2023-02-19T03:57:54.364Z,1.20
2023-02-19T04:00:10.798Z,1.70
2023-02-19T04:02:27.249Z,1.38
2023-02-19T04:04:43.531Z,1.90
2023-02-19T04:07:00.197Z,1.50
2023-02-19T04:09:16.514Z,1.73
2023-02-19T04:11:32.953Z,2.25
2023-02-19T04:13:49.281Z,1.60
2023-02-19T04:16:05.663Z,2.38
2023-02-19T04:18:22.061Z,1.40
2023-02-19T04:20:38.318Z,1.50
2023-02-19T04:22:54.626Z,1.70
2023-02-19T04:25:11.289Z,1.70
2023-02-19T04:27:27.740Z,1.95
2023-02-19T04:29:44.245Z,1.50
2023-02-19T04:32:00.679Z,1.80
2023-02-19T04:34:17.071Z,1.67
2023-02-19T04:36:33.508Z,2.15
2023-02-19T04:38:49.804Z,2.03
2023-02-19T04:41:06.104Z,1.83
2023-02-19T04:43:22.473Z,1.27
2023-02-19T04:45:38.746Z,1.30
2023-02-19T04:47:55.135Z,1.70
2023-02-19T04:50:11.838Z,1.30
2023-02-19T04:52:28.296Z,0.80
2023-02-19T04:54:44.589Z,1.05
2023-02-19T04:57:01.080Z,0.63
2023-02-19T04:59:17.397Z,1.10
2023-02-19T05:01:33.888Z,0.50
2023-02-19T05:03:50.321Z,2.08
2023-02-19T05:06:06.772Z,1.40
2023-02-19T05:08:23.054Z,1.17
2023-02-19T05:10:39.534Z,1.48
2023-02-19T05:12:57.959Z,1.02
2023-02-19T05:15:14.361Z,3.83
2023-02-19T05:17:30.760Z,1.95
2023-02-19T05:19:47.472Z,2.70
2023-02-19T05:22:03.724Z,2.47
2023-02-19T05:24:20.364Z,2.20
2023-02-19T05:26:36.750Z,2.42
2023-02-19T05:28:53.152Z,4.10
2023-02-19T05:31:10.158Z,5.43
2023-02-19T05:33:26.763Z,3.47
2023-02-19T05:35:43.442Z,4.93
2023-02-19T05:37:59.992Z,2.83
2023-02-19T05:40:16.632Z,2.22
2023-02-19T05:42:32.955Z,3.53
2023-02-19T05:44:49.588Z,4.70
2023-02-19T05:47:05.923Z,3.50
2023-02-19T05:49:22.373Z,3.70
2023-02-19T05:51:38.687Z,4.38
2023-02-19T05:53:55.360Z,4.95
2023-02-19T05:56:12.006Z,5.00
2023-02-19T05:58:28.280Z,4.40
2023-02-19T06:00:44.611Z,5.95
2023-02-19T06:03:01.191Z,5.13
2023-02-19T06:05:17.576Z,3.42
2023-02-19T06:07:33.907Z,4.93
2023-02-19T06:09:50.202Z,4.45
2023-02-19T06:12:06.654Z,5.07
2023-02-19T06:14:23.153Z,5.30
2023-02-19T06:16:39.576Z,6.00
2023-02-19T06:18:55.819Z,3.85
2023-02-19T06:21:12.713Z,8.65
2023-02-19T06:23:29.295Z,5.05
2023-02-19T06:25:45.727Z,4.88
2023-02-19T06:28:02.020Z,3.72
2023-02-19T06:30:18.403Z,7.00
2023-02-19T06:32:35.127Z,10.07
2023-02-19T06:34:51.810Z,5.20
2023-02-19T06:37:08.132Z,14.88
2023-02-19T06:39:24.760Z,14.38
2023-02-19T06:41:41.498Z,8.68
2023-02-19T06:43:57.855Z,33.28
2023-02-19T06:46:14.412Z,22.30
2023-02-19T06:48:31.155Z,9.82
2023-02-19T06:50:47.619Z,37.67
2023-02-19T06:53:04.018Z,32.42
2023-02-19T06:55:20.720Z,56.10
2023-02-19T06:57:37.016Z,14.57
2023-02-19T06:59:53.347Z,14.20
2023-02-19T07:02:09.779Z,11.88
2023-02-19T07:04:26.566Z,10.40
2023-02-19T07:06:42.943Z,7.65
2023-02-19T07:08:59.503Z,6.20
2023-02-19T07:11:15.757Z,12.57
2023-02-19T07:13:32.396Z,7.25
2023-02-19T07:15:50.531Z,8.30
2023-02-19T07:18:08.740Z,16.35
2023-02-19T07:20:25.063Z,71.28
2023-02-19T07:22:41.360Z,36.90
2023-02-19T07:24:58.023Z,41.63
2023-02-19T07:27:14.423Z,40.42
2023-02-19T07:29:30.676Z,16.05
2023-02-19T07:31:47.045Z,18.70
2023-02-19T07:34:03.701Z,7.53
2023-02-19T07:36:20.063Z,13.40
2023-02-19T07:38:36.387Z,14.43
2023-02-19T07:40:52.810Z,7.65
2023-02-19T07:43:09.284Z,10.32
2023-02-19T07:45:25.743Z,9.07
2023-02-19T07:47:42.489Z,12.50
2023-02-19T07:49:58.860Z,14.27
2023-02-19T07:52:15.194Z,16.75
2023-02-19T07:54:31.916Z,15.73
2023-02-19T07:56:48.425Z,6.68
2023-02-19T07:59:04.792Z,10.95
2023-02-19T08:01:21.305Z,8.70
2023-02-19T08:03:37.783Z,9.02
2023-02-19T08:05:54.118Z,7.78
2023-02-19T08:08:10.816Z,8.00
2023-02-19T08:10:27.349Z,5.68
2023-02-19T08:12:43.719Z,6.47
2023-02-19T08:15:00.403Z,7.53
2023-02-19T08:17:16.880Z,5.85
2023-02-19T08:19:33.182Z,6.18
2023-02-19T08:21:49.724Z,4.30
2023-02-19T08:24:06.039Z,7.78
2023-02-19T08:26:22.517Z,6.13
2023-02-19T08:28:38.997Z,4.55
2023-02-19T08:30:55.429Z,12.05
2023-02-19T08:33:11.676Z,7.03
2023-02-19T08:35:28.138Z,9.27
2023-02-19T08:37:44.567Z,5.72
2023-02-19T08:40:01.035Z,11.00
2023-02-19T08:42:17.426Z,10.20
2023-02-19T08:44:33.866Z,4.68
2023-02-19T08:46:50.377Z,7.50
2023-02-19T08:49:07.086Z,8.52
2023-02-19T08:51:23.519Z,7.25
2023-02-19T08:53:39.822Z,12.38
2023-02-19T08:55:56.287Z,10.48
2023-02-19T08:58:13.019Z,7.50
2023-02-19T09:00:29.444Z,5.93
2023-02-19T09:02:45.906Z,7.10
2023-02-19T09:05:02.629Z,6.78
2023-02-19T09:07:19.345Z,7.05
2023-02-19T09:09:35.671Z,8.68
2023-02-19T09:11:52.163Z,7.32
2023-02-19T09:14:08.628Z,9.32
2023-02-19T09:16:25.888Z,8.05
2023-02-19T09:18:42.358Z,5.30
2023-02-19T09:20:58.849Z,5.97
2023-02-19T09:23:15.339Z,7.65
2023-02-19T09:25:31.801Z,5.63
2023-02-19T09:27:48.468Z,7.57
2023-02-19T09:30:05.205Z,4.95
2023-02-19T09:32:21.856Z,7.60
2023-02-19T09:34:38.363Z,7.82
2023-02-19T09:36:54.657Z,10.98
2023-02-19T09:39:10.989Z,6.60
2023-02-19T09:41:27.674Z,7.47
2023-02-19T09:43:44.494Z,4.40
2023-02-19T09:46:00.960Z,7.35
2023-02-19T09:48:17.524Z,5.15
2023-02-19T09:50:33.983Z,7.38
2023-02-19T09:52:50.321Z,6.45
2023-02-19T09:55:07.034Z,8.25
2023-02-19T09:57:23.709Z,6.60
2023-02-19T09:59:40.081Z,17.85
2023-02-19T10:01:56.468Z,11.77
2023-02-19T10:04:12.786Z,8.20
2023-02-19T10:06:29.527Z,6.75
2023-02-19T10:08:46.120Z,7.80
2023-02-19T10:11:02.806Z,6.88
2023-02-19T10:13:19.219Z,10.23
2023-02-19T10:15:35.647Z,11.18
2023-02-19T10:17:52.384Z,8.90
2023-02-19T10:20:09.094Z,7.55
2023-02-19T10:22:25.419Z,6.93
2023-02-19T10:24:41.835Z,6.47
2023-02-19T10:26:58.296Z,6.28
2023-02-19T10:29:14.669Z,5.97
2023-02-19T10:31:31.032Z,6.75
2023-02-19T10:33:47.769Z,4.22
2023-02-19T10:36:04.240Z,6.20
2023-02-19T10:38:20.551Z,9.13
2023-02-19T10:40:37.362Z,7.30
2023-02-19T10:42:54.028Z,5.82
2023-02-19T10:45:10.473Z,7.50
2023-02-19T10:47:26.912Z,6.13
2023-02-19T10:49:43.586Z,10.55
2023-02-19T10:51:59.922Z,7.10
2023-02-19T10:54:16.382Z,4.53
2023-02-19T10:56:32.736Z,7.95
2023-02-19T10:58:49.231Z,7.53
2023-02-19T11:01:06.291Z,7.60
2023-02-19T11:03:22.660Z,8.00
2023-02-19T11:05:39.333Z,5.65
2023-02-19T11:07:55.806Z,6.60
2023-02-19T11:10:12.514Z,6.30
2023-02-19T11:12:28.956Z,6.45
2023-02-19T11:14:45.415Z,7.28
2023-02-19T11:17:02.214Z,8.38
2023-02-19T11:19:19.024Z,6.78
2023-02-19T11:21:35.476Z,6.40
2023-02-19T11:23:52.246Z,8.32
2023-02-19T11:26:08.581Z,4.70
2023-02-19T11:28:25.091Z,5.82
2023-02-19T11:30:41.494Z,9.02
2023-02-19T11:32:58.526Z,7.07
2023-02-19T11:35:14.847Z,5.43
2023-02-19T11:37:31.541Z,7.22
2023-02-19T11:39:48.180Z,8.77
2023-02-19T11:42:04.883Z,5.85
2023-02-19T11:44:21.638Z,7.57
2023-02-19T11:46:38.350Z,7.43
2023-02-19T11:48:54.743Z,7.80
2023-02-19T11:51:11.553Z,6.45
2023-02-19T11:53:27.946Z,7.82
2023-02-19T11:55:44.388Z,8.52
2023-02-19T11:58:01.019Z,6.88
2023-02-19T12:00:17.803Z,6.80
2023-02-19T12:02:34.226Z,6.53
2023-02-19T12:04:50.755Z,6.00
2023-02-19T12:07:07.085Z,6.78
2023-02-19T12:09:24.101Z,5.22
2023-02-19T12:11:40.504Z,9.15
2023-02-19T12:13:56.953Z,5.78
2023-02-19T12:16:13.435Z,10.13
2023-02-19T12:18:30.162Z,7.03
2023-02-19T12:20:46.652Z,5.30
2023-02-19T12:23:03.461Z,15.55
2023-02-19T12:25:19.790Z,9.23
2023-02-19T12:27:36.292Z,27.88
2023-02-19T12:29:52.595Z,18.23
2023-02-19T12:32:09.104Z,11.55
2023-02-19T12:34:25.497Z,7.22
2023-02-19T12:36:42.202Z,9.95
2023-02-19T12:38:58.632Z,11.13
2023-02-19T12:41:15.245Z,9.32
2023-02-19T12:43:31.940Z,6.82
2023-02-19T12:45:48.501Z,9.95
2023-02-19T12:48:05.006Z,7.93
2023-02-19T12:50:21.812Z,14.23
2023-02-19T12:52:38.220Z,6.75
2023-02-19T12:54:55.878Z,7.78
2023-02-19T12:57:12.802Z,7.40
2023-02-19T12:59:29.231Z,7.57
2023-02-19T13:01:45.606Z,8.82
2023-02-19T13:04:02.106Z,7.00
2023-02-19T13:06:18.865Z,7.80
2023-02-19T13:08:36.576Z,5.53
2023-02-19T13:10:54.157Z,8.73
2023-02-19T13:13:10.886Z,18.20
2023-02-19T13:15:27.206Z,9.07
2023-02-19T13:17:43.894Z,8.02
2023-02-19T13:20:00.255Z,8.45
2023-02-19T13:22:17.001Z,8.68
2023-02-19T13:24:33.795Z,8.20
2023-02-19T13:26:50.089Z,6.82
2023-02-19T13:29:06.370Z,8.63
2023-02-19T13:31:22.931Z,6.10
2023-02-19T13:33:39.460Z,5.57
2023-02-19T13:35:55.998Z,5.65
2023-02-19T13:38:12.332Z,5.90
2023-02-19T13:40:29.112Z,5.38
2023-02-19T13:42:45.825Z,4.65
2023-02-19T13:45:02.279Z,3.90
2023-02-19T13:47:18.911Z,3.63
2023-02-19T13:49:35.324Z,4.95
2023-02-19T13:51:51.783Z,4.32
2023-02-19T13:54:08.110Z,3.13
2023-02-19T13:56:24.585Z,3.42
2023-02-19T13:58:41.120Z,4.15
2023-02-19T14:00:57.754Z,4.53
2023-02-19T14:03:14.085Z,2.67
2023-02-19T14:05:30.455Z,4.82
2023-02-19T14:07:46.872Z,4.72
2023-02-19T14:10:03.236Z,3.88
2023-02-19T14:12:19.862Z,6.43
2023-02-19T14:14:36.232Z,5.22
2023-02-19T14:16:52.827Z,4.68
2023-02-19T14:19:09.162Z,4.55
2023-02-19T14:21:25.652Z,4.35
2023-02-19T14:23:43.458Z,5.15
2023-02-19T14:25:59.903Z,5.05
2023-02-19T14:28:16.281Z,5.50
2023-02-19T14:30:33.016Z,5.65
2023-02-19T14:32:54.509Z,4.85
2023-02-19T14:35:15.199Z,7.18
2023-02-19T14:37:31.742Z,6.18
2023-02-19T14:39:48.474Z,5.22
2023-02-19T14:42:04.877Z,5.57
2023-02-19T14:44:21.523Z,7.50
2023-02-19T14:46:37.903Z,7.47
2023-02-19T14:48:54.242Z,6.20
2023-02-19T14:51:11.101Z,5.93
2023-02-19T14:53:27.608Z,3.92
2023-02-19T14:55:44.253Z,5.80
2023-02-19T14:58:00.704Z,5.22
2023-02-19T15:00:17.012Z,5.43
2023-02-19T15:02:33.418Z,6.82
2023-02-19T15:04:49.900Z,8.50
2023-02-19T15:07:06.405Z,5.95
2023-02-19T15:09:22.718Z,5.60
2023-02-19T15:11:39.127Z,6.18
2023-02-19T15:13:57.230Z,5.18
2023-02-19T15:16:14.100Z,5.28
2023-02-19T15:18:30.648Z,6.18
2023-02-19T15:20:47.367Z,5.50
2023-02-19T15:23:04.077Z,8.68
2023-02-19T15:25:20.474Z,5.18
2023-02-19T15:27:36.816Z,6.85
2023-02-19T15:29:53.798Z,7.65
2023-02-19T15:32:10.264Z,6.95
2023-02-19T15:34:26.590Z,4.72
2023-02-19T15:36:43.067Z,6.90
2023-02-19T15:38:59.433Z,5.55
2023-02-19T15:41:15.911Z,7.00
2023-02-19T15:43:32.452Z,6.95
2023-02-19T15:45:48.720Z,3.42
2023-02-19T15:48:05.205Z,6.10
2023-02-19T15:50:21.644Z,2.17
2023-02-19T15:52:38.002Z,3.42
2023-02-19T15:54:54.409Z,4.47
2023-02-19T15:57:10.730Z,3.80
2023-02-19T15:59:27.050Z,5.13
2023-02-19T16:01:43.693Z,4.78
2023-02-19T16:04:00.412Z,6.00
2023-02-19T16:06:16.852Z,6.20
2023-02-19T16:08:33.158Z,5.10
2023-02-19T16:10:49.453Z,5.05
2023-02-19T16:13:05.764Z,4.75
2023-02-19T16:15:22.290Z,6.38
2023-02-19T16:17:38.953Z,5.72
2023-02-19T16:19:55.661Z,5.95
2023-02-19T16:22:11.907Z,5.18
2023-02-19T16:24:28.617Z,5.57
2023-02-19T16:26:45.409Z,5.28
2023-02-19T16:29:01.685Z,7.40
2023-02-19T16:31:18.107Z,7.30
2023-02-19T16:33:34.638Z,6.13
2023-02-19T16:35:51.139Z,6.57
2023-02-19T16:38:07.431Z,6.00
2023-02-19T16:40:23.891Z,7.28
2023-02-19T16:42:40.207Z,4.40
2023-02-19T16:44:56.553Z,4.13
2023-02-19T16:47:13.243Z,6.65
2023-02-19T16:49:29.566Z,3.83
2023-02-19T16:51:45.960Z,5.22
2023-02-19T16:54:02.503Z,8.40
2023-02-19T16:56:19.014Z,8.52
2023-02-19T16:58:36.433Z,6.53
2023-02-19T17:00:53.874Z,4.57
2023-02-19T17:03:10.368Z,6.75
2023-02-19T17:05:26.712Z,7.07
2023-02-19T17:07:43.169Z,10.75
2023-02-19T17:09:59.721Z,7.10
2023-02-19T17:12:16.092Z,7.63
2023-02-19T17:14:32.572Z,9.02
2023-02-19T17:16:49.100Z,6.43
2023-02-19T17:19:05.542Z,9.13
2023-02-19T17:21:22.021Z,6.65
2023-02-19T17:23:38.319Z,7.35
2023-02-19T17:25:54.586Z,7.68
2023-02-19T17:28:11.078Z,6.95
2023-02-19T17:30:27.827Z,9.32
2023-02-19T17:32:44.191Z,5.90
2023-02-19T17:35:00.520Z,5.07
2023-02-19T17:37:17.359Z,5.72
2023-02-19T17:39:33.701Z,5.93
2023-02-19T17:41:50.020Z,6.35
2023-02-19T17:44:06.555Z,8.25
2023-02-19T17:46:22.953Z,6.57
2023-02-19T17:48:39.653Z,7.60
2023-02-19T17:50:56.008Z,7.75
2023-02-19T17:53:12.730Z,9.48
2023-02-19T17:55:29.230Z,12.35
2023-02-19T17:57:45.655Z,8.05
2023-02-19T18:00:02.008Z,8.70
2023-02-19T18:02:18.522Z,9.50
2023-02-19T18:04:36.603Z,11.70
2023-02-19T18:06:53.324Z,8.40
2023-02-19T18:09:09.649Z,7.75
2023-02-19T18:11:26.101Z,7.50
2023-02-19T18:13:42.645Z,8.32
2023-02-19T18:15:59.327Z,9.07
2023-02-19T18:18:15.811Z,9.52
2023-02-19T18:20:32.176Z,10.50
2023-02-19T18:22:48.557Z,4.95
2023-02-19T18:25:05.247Z,6.70
2023-02-19T18:27:21.682Z,10.25
2023-02-19T18:29:38.030Z,12.40
2023-02-19T18:31:54.623Z,12.38
2023-02-19T18:34:11.107Z,14.32
2023-02-19T18:36:27.871Z,17.55
2023-02-19T18:38:44.526Z,17.77
2023-02-19T18:41:01.327Z,12.50
2023-02-19T18:43:18.079Z,14.10
2023-02-19T18:45:34.398Z,12.82
2023-02-19T18:47:51.110Z,16.45
2023-02-19T18:50:07.735Z,13.52
2023-02-19T18:52:24.040Z,14.63
2023-02-19T18:54:40.391Z,14.20
2023-02-19T18:56:56.841Z,11.52
2023-02-19T18:59:13.569Z,13.32
2023-02-19T19:01:30.091Z,11.20
2023-02-19T19:03:46.512Z,11.13
2023-02-19T19:06:03.147Z,12.60
2023-02-19T19:08:19.937Z,11.52
2023-02-19T19:10:36.663Z,14.80
2023-02-19T19:12:53.001Z,7.25
2023-02-19T19:15:09.805Z,9.23
2023-02-19T19:17:26.266Z,8.65
2023-02-19T19:19:42.570Z,9.82
2023-02-19T19:21:58.912Z,7.40
2023-02-19T19:24:15.347Z,10.05
2023-02-19T19:26:32.058Z,10.27
2023-02-19T19:28:48.537Z,9.63
2023-02-19T19:31:04.880Z,6.82
2023-02-19T19:33:21.434Z,8.38
2023-02-19T19:35:37.928Z,8.45
2023-02-19T19:37:54.258Z,8.68
2023-02-19T19:40:11.036Z,6.30
2023-02-19T19:42:27.462Z,7.10
2023-02-19T19:44:44.189Z,9.95
2023-02-19T19:47:00.593Z,8.02
2023-02-19T19:49:17.340Z,12.15
2023-02-19T19:51:33.845Z,6.45
2023-02-19T19:53:50.231Z,10.20
2023-02-19T19:56:06.926Z,9.15
2023-02-19T19:58:23.291Z,7.32
2023-02-19T20:00:39.591Z,7.72
2023-02-19T20:02:56.181Z,9.20
2023-02-19T20:05:12.967Z,9.60
2023-02-19T20:07:29.409Z,9.25
2023-02-19T20:09:45.826Z,7.10
2023-02-19T20:12:02.532Z,11.57
2023-02-19T20:14:18.854Z,7.72
2023-02-19T20:16:35.348Z,6.75
2023-02-19T20:18:51.851Z,8.27
2023-02-19T20:21:08.631Z,8.68
2023-02-19T20:23:27.274Z,8.60
2023-02-19T20:25:43.688Z,7.28
2023-02-19T20:28:00.123Z,9.23
2023-02-19T20:30:16.967Z,9.07
2023-02-19T20:32:33.731Z,9.50
2023-02-19T20:34:50.466Z,9.10
2023-02-19T20:37:06.797Z,8.10
2023-02-19T20:39:23.480Z,8.40
2023-02-19T20:41:40.009Z,12.63
2023-02-19T20:43:56.455Z,6.60
2023-02-19T20:46:13.393Z,9.43
2023-02-19T20:48:30.028Z,8.75
2023-02-19T20:50:46.423Z,9.93
2023-02-19T20:53:02.766Z,5.70
2023-02-19T20:55:19.197Z,9.70
2023-02-19T20:57:35.645Z,8.82
2023-02-19T20:59:52.276Z,5.88
2023-02-19T21:02:08.802Z,7.72
2023-02-19T21:04:25.214Z,8.45
2023-02-19T21:06:41.596Z,7.82
2023-02-19T21:08:58.592Z,9.52
2023-02-19T21:11:15.142Z,7.43
2023-02-19T21:13:31.775Z,6.38
2023-02-19T21:15:48.207Z,7.32
2023-02-19T21:18:04.704Z,10.38
2023-02-19T21:20:21.214Z,9.40
2023-02-19T21:22:37.680Z,7.38
2023-02-19T21:24:54.483Z,7.80
2023-02-19T21:27:10.831Z,8.77
2023-02-19T21:29:27.402Z,7.43
2023-02-19T21:31:44.246Z,8.48
2023-02-19T21:34:00.701Z,9.25
2023-02-19T21:36:17.028Z,9.23
2023-02-19T21:38:33.366Z,9.18
2023-02-19T21:40:49.696Z,9.55
2023-02-19T21:43:06.245Z,8.57
2023-02-19T21:45:22.610Z,7.55
2023-02-19T21:47:39.291Z,9.95
2023-02-19T21:49:56.031Z,9.18
2023-02-19T21:52:12.432Z,10.30
2023-02-19T21:54:28.878Z,11.38
2023-02-19T21:56:45.235Z,8.52
2023-02-19T21:59:01.998Z,7.72
2023-02-19T22:01:18.738Z,9.75
2023-02-19T22:03:35.076Z,14.57
2023-02-19T22:05:51.774Z,13.68
2023-02-19T22:08:08.106Z,9.85
2023-02-19T22:10:24.694Z,10.15
2023-02-19T22:12:41.075Z,9.43
2023-02-19T22:14:57.411Z,13.50
2023-02-19T22:17:14.131Z,11.88
2023-02-19T22:19:30.709Z,12.43
2023-02-19T22:21:47.177Z,11.05
2023-02-19T22:24:03.496Z,13.25
2023-02-19T22:26:20.100Z,11.52
2023-02-19T22:28:36.551Z,12.60
2023-02-19T22:30:52.932Z,11.75
2023-02-19T22:33:09.693Z,11.55
2023-02-19T22:35:26.348Z,11.50
2023-02-19T22:37:42.983Z,10.45
2023-02-19T22:39:59.284Z,9.88
2023-02-19T22:42:15.880Z,13.32
2023-02-19T22:44:32.613Z,10.70
2023-02-19T22:46:48.984Z,9.70
2023-02-19T22:49:05.640Z,12.35
2023-02-19T22:51:21.935Z,10.10
2023-02-19T22:53:38.388Z,8.88
2023-02-19T22:55:54.739Z,10.40
2023-02-19T22:58:11.234Z,9.25
2023-02-19T23:00:27.948Z,8.88
2023-02-19T23:02:44.591Z,8.52
2023-02-19T23:05:01.359Z,8.85
2023-02-19T23:07:18.085Z,9.85
2023-02-19T23:09:34.425Z,8.80
2023-02-19T23:11:50.893Z,7.80
2023-02-19T23:14:07.565Z,10.05
2023-02-19T23:16:24.002Z,9.98
2023-02-19T23:18:40.429Z,10.95
2023-02-19T23:20:56.912Z,9.45
2023-02-19T23:23:13.364Z,10.70
2023-02-19T23:25:29.863Z,11.15
2023-02-19T23:27:46.168Z,9.82
2023-02-19T23:30:02.587Z,10.18
2023-02-19T23:32:19.540Z,9.63
2023-02-19T23:34:35.846Z,11.73
2023-02-19T23:36:52.582Z,10.73
2023-02-19T23:39:09.014Z,13.15
2023-02-19T23:41:25.586Z,8.70
2023-02-19T23:43:41.912Z,9.38
2023-02-19T23:45:58.428Z,12.77
2023-02-19T23:48:14.868Z,8.93
2023-02-19T23:50:31.553Z,9.63
2023-02-19T23:52:48.000Z,10.95
2023-02-19T23:55:04.430Z,10.52
2023-02-19T23:57:21.142Z,9.73
2023-02-19T23:59:37.843Z,11.73
